createdAt,value
2023-04-16T00:00:42.908Z,8.58
2023-04-16T00:05:35.941Z,8.60
2023-04-16T00:08:02.544Z,8.57
2023-04-16T00:10:29.086Z,8.55
2023-04-16T00:12:55.488Z,8.59
2023-04-16T00:15:22.066Z,8.63
2023-04-16T00:17:48.516Z,8.60
2023-04-16T00:20:15.404Z,8.62
2023-04-16T00:22:41.804Z,8.62
2023-04-16T00:25:08.589Z,8.62
2023-04-16T00:27:35.042Z,8.62
2023-04-16T00:30:01.615Z,8.61
2023-04-16T00:32:28.105Z,8.58
2023-04-16T00:34:54.735Z,8.59
2023-04-16T00:37:21.180Z,8.57
2023-04-16T00:39:47.662Z,8.56
2023-04-16T00:42:14.975Z,8.55
2023-04-16T00:44:41.399Z,8.57
2023-04-16T00:47:08.745Z,8.56
2023-04-16T00:49:36.211Z,8.53
2023-04-16T00:52:03.379Z,8.51
2023-04-16T00:54:31.561Z,8.53
2023-04-16T00:56:59.645Z,8.53
2023-04-16T00:59:26.964Z,8.53
2023-04-16T01:01:53.591Z,8.56
2023-04-16T01:04:20.692Z,8.54
2023-04-16T01:06:47.165Z,8.54
2023-04-16T01:09:14.187Z,8.55
2023-04-16T01:11:40.751Z,8.56
2023-04-16T01:14:07.341Z,8.52
2023-04-16T01:16:33.850Z,8.55
2023-04-16T01:19:00.392Z,8.56
2023-04-16T01:21:27.444Z,8.55
2023-04-16T01:23:53.961Z,8.50
2023-04-16T01:26:20.407Z,8.51
2023-04-16T01:28:46.903Z,8.50
2023-04-16T01:31:13.414Z,8.48
2023-04-16T01:34:02.527Z,8.51
2023-04-16T01:36:28.960Z,8.53
2023-04-16T01:38:55.588Z,8.47
2023-04-16T01:41:23.479Z,8.45
2023-04-16T01:43:50.006Z,8.47
2023-04-16T01:46:27.176Z,8.47
2023-04-16T01:48:54.799Z,8.47
2023-04-16T01:51:21.790Z,8.45
2023-04-16T01:53:52.032Z,8.43
2023-04-16T01:56:18.514Z,8.43
2023-04-16T01:58:46.075Z,8.46
2023-04-16T02:01:13.973Z,8.49
2023-04-16T02:03:40.720Z,8.51
2023-04-16T02:06:07.443Z,8.51
2023-04-16T02:08:35.544Z,8.53
2023-04-16T02:11:02.102Z,8.51
2023-04-16T02:13:28.968Z,8.51
2023-04-16T02:15:55.439Z,8.51
2023-04-16T02:18:57.300Z,8.54
2023-04-16T02:21:24.843Z,8.54
2023-04-16T02:23:51.819Z,8.55
2023-04-16T02:26:22.751Z,8.56
2023-04-16T02:28:50.996Z,8.56
2023-04-16T02:31:19.745Z,8.58
2023-04-16T02:33:47.785Z,8.61
2023-04-16T02:36:14.718Z,8.62
2023-04-16T02:38:41.177Z,8.62
2023-04-16T02:41:08.179Z,8.63
2023-04-16T02:43:34.792Z,8.63
2023-04-16T02:46:01.863Z,8.64
2023-04-16T02:48:28.453Z,8.64
2023-04-16T02:50:54.933Z,8.65
2023-04-16T02:53:21.655Z,8.64
2023-04-16T02:55:54.978Z,8.65
2023-04-16T02:58:23.928Z,8.64
2023-04-16T03:00:51.265Z,8.65
2023-04-16T03:03:17.943Z,8.64
2023-04-16T03:05:45.458Z,8.65
2023-04-16T03:08:11.923Z,8.62
2023-04-16T03:10:38.462Z,8.63
2023-04-16T03:13:05.081Z,8.64
2023-04-16T03:15:31.595Z,8.63
2023-04-16T03:17:59.108Z,8.65
2023-04-16T03:20:25.877Z,8.65
2023-04-16T03:22:53.047Z,8.64
2023-04-16T03:25:19.675Z,8.65
2023-04-16T03:27:46.189Z,8.63
2023-04-16T03:30:14.633Z,8.59
2023-04-16T03:32:41.605Z,8.58
2023-04-16T03:35:09.559Z,8.60
2023-04-16T03:37:36.845Z,8.60
2023-04-16T03:40:05.791Z,8.61
2023-04-16T03:42:32.540Z,8.61
2023-04-16T03:44:59.358Z,8.61
2023-04-16T03:47:26.138Z,8.56
2023-04-16T03:49:56.055Z,8.56
2023-04-16T03:52:22.585Z,8.56
2023-04-16T03:54:49.049Z,8.55
2023-04-16T03:57:24.140Z,8.54
2023-04-16T03:59:51.378Z,8.54
2023-04-16T04:02:18.435Z,8.53
2023-04-16T04:04:45.348Z,8.51
2023-04-16T04:07:11.889Z,8.53
2023-04-16T04:09:38.752Z,8.51
2023-04-16T04:12:05.310Z,8.51
2023-04-16T04:14:33.066Z,8.54
2023-04-16T04:16:59.597Z,8.51
2023-04-16T04:19:26.031Z,8.53
2023-04-16T04:21:52.460Z,8.53
2023-04-16T04:24:18.906Z,8.54
2023-04-16T04:26:45.484Z,8.55
2023-04-16T04:29:12.365Z,8.54
2023-04-16T04:31:38.997Z,8.53
2023-04-16T04:34:05.468Z,8.55
2023-04-16T04:36:32.234Z,8.57
2023-04-16T04:39:00.110Z,8.58
2023-04-16T04:41:27.255Z,8.57
2023-04-16T04:43:53.892Z,8.55
2023-04-16T04:46:20.847Z,8.54
2023-04-16T04:48:47.382Z,8.57
2023-04-16T04:51:16.193Z,8.54
2023-04-16T04:53:45.236Z,8.53
2023-04-16T04:56:13.054Z,8.53
2023-04-16T04:58:41.397Z,8.53
2023-04-16T05:01:07.997Z,8.54
2023-04-16T05:03:34.617Z,8.55
2023-04-16T05:06:01.212Z,8.54
2023-04-16T05:08:29.901Z,8.53
2023-04-16T05:10:56.302Z,8.55
2023-04-16T05:13:22.928Z,8.57
2023-04-16T05:15:49.474Z,8.54
2023-04-16T05:18:16.297Z,8.53
2023-04-16T05:20:42.696Z,8.54
2023-04-16T05:23:09.161Z,8.57
2023-04-16T05:25:35.725Z,8.58
2023-04-16T05:28:02.139Z,8.59
2023-04-16T05:30:28.551Z,8.59
2023-04-16T05:32:54.973Z,8.60
2023-04-16T05:35:22.264Z,8.59
2023-04-16T05:37:48.708Z,8.60
2023-04-16T05:40:15.397Z,8.58
2023-04-16T05:42:41.938Z,8.60
2023-04-16T05:45:08.953Z,8.60
2023-04-16T05:47:35.473Z,8.62
2023-04-16T05:50:01.989Z,8.60
2023-04-16T05:52:28.502Z,8.59
2023-04-16T05:54:55.089Z,8.61
2023-04-16T05:57:21.578Z,8.61
2023-04-16T05:59:48.145Z,8.65
2023-04-16T06:02:14.994Z,8.66
2023-04-16T06:04:41.483Z,8.67
2023-04-16T06:07:07.985Z,8.67
2023-04-16T06:09:34.397Z,8.68
2023-04-16T06:12:01.312Z,8.67
2023-04-16T06:14:27.796Z,8.70
2023-04-16T06:16:54.239Z,8.71
2023-04-16T06:19:20.898Z,8.73
2023-04-16T06:21:47.409Z,8.74
2023-04-16T06:24:14.037Z,8.74
2023-04-16T06:26:40.485Z,8.76
2023-04-16T06:29:06.893Z,8.79
2023-04-16T06:31:33.384Z,8.79
2023-04-16T06:33:59.829Z,8.81
2023-04-16T06:36:27.563Z,8.83
2023-04-16T06:38:53.955Z,8.83
2023-04-16T06:41:22.700Z,8.85
2023-04-16T06:43:49.468Z,8.86
2023-04-16T06:46:15.926Z,8.88
2023-04-16T06:48:42.577Z,8.90
2023-04-16T06:51:09.149Z,8.90
2023-04-16T06:53:37.477Z,8.91
2023-04-16T06:56:04.276Z,8.94
2023-04-16T06:58:30.780Z,8.92
2023-04-16T07:00:57.363Z,8.93
2023-04-16T07:03:23.994Z,8.96
2023-04-16T07:05:50.597Z,8.94
2023-04-16T07:08:17.058Z,8.96
2023-04-16T07:10:43.685Z,9.02
2023-04-16T07:13:10.382Z,9.04
2023-04-16T07:15:36.869Z,9.03
2023-04-16T07:18:03.374Z,9.05
2023-04-16T07:20:29.980Z,9.06
2023-04-16T07:22:56.624Z,9.06
2023-04-16T07:25:23.112Z,9.07
2023-04-16T07:27:49.668Z,9.08
2023-04-16T07:30:16.240Z,9.11
2023-04-16T07:32:42.952Z,9.13
2023-04-16T07:35:09.619Z,9.15
2023-04-16T07:37:36.081Z,9.18
2023-04-16T07:40:02.567Z,9.20
2023-04-16T07:42:29.123Z,9.22
2023-04-16T07:44:55.592Z,9.22
2023-04-16T07:47:23.249Z,9.23
2023-04-16T07:49:50.581Z,9.29
2023-04-16T07:52:16.990Z,9.28
2023-04-16T07:54:43.536Z,9.29
2023-04-16T07:57:11.473Z,9.29
2023-04-16T07:59:38.058Z,9.29
2023-04-16T08:02:04.910Z,9.31
2023-04-16T08:04:31.729Z,9.32
2023-04-16T08:06:58.333Z,9.37
2023-04-16T08:09:28.307Z,9.38
2023-04-16T08:11:54.855Z,9.39
2023-04-16T08:14:21.332Z,9.42
2023-04-16T08:16:47.802Z,9.47
2023-04-16T08:19:14.265Z,9.52
2023-04-16T08:21:41.075Z,9.50
2023-04-16T08:24:07.969Z,9.56
2023-04-16T08:26:34.643Z,9.58
2023-04-16T08:29:01.180Z,9.61
2023-04-16T08:31:27.757Z,9.64
2023-04-16T08:33:54.206Z,9.66
2023-04-16T08:36:20.836Z,9.70
2023-04-16T08:38:47.364Z,9.70
2023-04-16T08:41:14.949Z,9.69
2023-04-16T08:43:45.590Z,9.70
2023-04-16T08:46:13.079Z,9.75
2023-04-16T08:48:42.026Z,9.81
2023-04-16T08:51:10.022Z,9.80
2023-04-16T08:53:48.387Z,9.89
2023-04-16T08:56:18.028Z,9.93
2023-04-16T08:58:47.491Z,10.03
2023-04-16T09:01:14.820Z,10.09
2023-04-16T09:03:41.726Z,10.18
2023-04-16T09:06:09.918Z,10.30
2023-04-16T09:08:38.046Z,10.35
2023-04-16T09:11:04.617Z,10.41
2023-04-16T09:13:34.167Z,10.43
2023-04-16T09:16:00.999Z,10.40
2023-04-16T09:18:28.417Z,10.33
2023-04-16T09:20:56.252Z,10.34
2023-04-16T09:23:23.373Z,10.37
2023-04-16T09:25:49.773Z,10.42
2023-04-16T09:28:41.775Z,10.44
2023-04-16T09:31:13.361Z,10.46
2023-04-16T09:33:40.493Z,10.44
2023-04-16T09:36:07.628Z,10.47
2023-04-16T09:38:48.034Z,10.57
2023-04-16T09:41:18.071Z,10.58
2023-04-16T09:44:02.007Z,10.59
2023-04-16T09:46:34.950Z,10.50
2023-04-16T09:49:15.518Z,10.47
2023-04-16T09:51:43.551Z,10.45
2023-04-16T09:54:10.113Z,10.49
2023-04-16T09:56:44.959Z,10.42
2023-04-16T09:59:18.052Z,10.39
2023-04-16T10:01:46.962Z,10.43
2023-04-16T10:04:13.352Z,10.42
2023-04-16T10:06:39.854Z,10.49
2023-04-16T10:09:09.687Z,10.46
2023-04-16T10:11:37.755Z,10.48
2023-04-16T10:14:04.207Z,10.51
2023-04-16T10:16:31.053Z,10.58
2023-04-16T10:18:58.749Z,10.65
2023-04-16T10:21:26.370Z,10.78
2023-04-16T10:23:52.937Z,10.78
2023-04-16T10:26:21.318Z,10.71
2023-04-16T10:28:47.989Z,10.68
2023-04-16T10:31:14.847Z,10.71
2023-04-16T10:33:42.633Z,10.79
2023-04-16T10:36:09.601Z,10.86
2023-04-16T10:38:39.725Z,10.81
2023-04-16T10:41:07.066Z,10.82
2023-04-16T10:43:42.437Z,10.76
2023-04-16T10:46:33.367Z,10.68
2023-04-16T10:49:16.232Z,10.69
2023-04-16T10:51:42.794Z,10.77
2023-04-16T10:54:09.279Z,10.79
2023-04-16T10:56:37.152Z,10.77
2023-04-16T10:59:11.418Z,10.83
2023-04-16T11:01:46.188Z,10.84
2023-04-16T11:04:22.074Z,10.93
2023-04-16T11:07:03.059Z,10.93
2023-04-16T11:10:02.092Z,10.98
2023-04-16T11:12:35.529Z,11.08
2023-04-16T11:15:05.976Z,11.13
2023-04-16T11:17:43.616Z,11.15
2023-04-16T11:20:20.246Z,11.13
2023-04-16T11:22:57.713Z,11.17
2023-04-16T11:25:26.289Z,11.15
2023-04-16T11:27:53.207Z,11.20
2023-04-16T11:30:31.963Z,11.22
2023-04-16T11:32:58.600Z,11.20
2023-04-16T11:35:27.438Z,11.18
2023-04-16T11:37:57.560Z,11.10
2023-04-16T11:40:25.244Z,11.05
2023-04-16T11:42:51.870Z,11.07
2023-04-16T11:45:19.445Z,11.15
2023-04-16T11:47:55.148Z,11.21
2023-04-16T11:50:24.206Z,11.23
2023-04-16T11:52:51.645Z,11.32
2023-04-16T11:55:18.906Z,11.41
2023-04-16T11:57:46.005Z,11.40
2023-04-16T12:00:14.238Z,11.32
2023-04-16T12:02:51.642Z,11.39
2023-04-16T12:05:28.792Z,11.43
2023-04-16T12:07:55.845Z,11.43
2023-04-16T12:10:22.764Z,11.50
2023-04-16T12:12:49.572Z,11.53
2023-04-16T12:15:16.144Z,11.63
2023-04-16T12:17:42.602Z,11.76
2023-04-16T12:20:10.054Z,11.92
2023-04-16T12:22:38.400Z,11.95
2023-04-16T12:25:13.586Z,11.85
2023-04-16T12:27:55.584Z,11.78
2023-04-16T12:30:23.791Z,11.67
2023-04-16T12:32:52.489Z,11.62
2023-04-16T12:35:29.720Z,11.63
2023-04-16T12:37:59.047Z,11.58
2023-04-16T12:40:25.979Z,11.60
2023-04-16T12:42:52.452Z,11.56
2023-04-16T12:45:19.123Z,11.51
2023-04-16T12:47:46.513Z,11.42
2023-04-16T12:50:12.998Z,11.30
2023-04-16T12:52:39.530Z,11.33
2023-04-16T12:55:06.653Z,11.43
2023-04-16T12:57:33.130Z,11.57
2023-04-16T12:59:59.601Z,11.66
2023-04-16T13:02:26.189Z,11.74
2023-04-16T13:04:53.857Z,11.77
2023-04-16T13:07:21.230Z,11.83
2023-04-16T13:09:47.782Z,11.76
2023-04-16T13:12:14.264Z,11.75
2023-04-16T13:14:42.399Z,11.78
2023-04-16T13:17:09.916Z,11.84
2023-04-16T13:19:36.512Z,11.77
2023-04-16T13:22:03.183Z,11.77
2023-04-16T13:24:30.526Z,11.80
2023-04-16T13:26:56.931Z,11.85
2023-04-16T13:29:23.336Z,11.94
2023-04-16T13:31:50.003Z,11.84
2023-04-16T13:34:16.573Z,11.92
2023-04-16T13:36:43.283Z,11.87
2023-04-16T13:39:12.737Z,11.83
2023-04-16T13:41:39.567Z,11.77
2023-04-16T13:44:06.348Z,11.73
2023-04-16T13:46:33.427Z,11.83
2023-04-16T13:49:00.058Z,11.87
2023-04-16T13:51:27.669Z,11.83
2023-04-16T13:53:54.818Z,11.83
2023-04-16T13:56:21.394Z,11.95
2023-04-16T13:58:48.393Z,11.95
2023-04-16T14:01:15.038Z,11.90
2023-04-16T14:03:42.049Z,11.97
2023-04-16T14:06:08.622Z,12.16
2023-04-16T14:08:35.074Z,12.25
2023-04-16T14:11:02.127Z,12.37
2023-04-16T14:13:28.674Z,12.43
2023-04-16T14:15:55.776Z,12.50
2023-04-16T14:18:22.289Z,12.64
2023-04-16T14:20:48.722Z,12.75
2023-04-16T14:23:15.278Z,12.71
2023-04-16T14:25:41.764Z,12.82
2023-04-16T14:28:09.226Z,13.11
2023-04-16T14:30:35.678Z,13.27
2023-04-16T14:33:04.401Z,13.36
2023-04-16T14:35:30.844Z,13.32
2023-04-16T14:37:58.298Z,13.05
2023-04-16T14:40:24.820Z,12.77
2023-04-16T14:42:51.366Z,12.52
2023-04-16T14:45:17.769Z,12.38
2023-04-16T14:47:47.683Z,12.19
2023-04-16T14:50:15.666Z,12.02
2023-04-16T14:52:42.215Z,12.05
2023-04-16T14:55:08.743Z,12.28
2023-04-16T14:57:35.330Z,12.51
2023-04-16T15:00:02.130Z,12.53
2023-04-16T15:02:29.226Z,12.51
2023-04-16T15:04:55.948Z,12.43
2023-04-16T15:07:22.526Z,12.60
2023-04-16T15:09:49.109Z,12.85
2023-04-16T15:12:17.941Z,12.87
2023-04-16T15:14:45.580Z,13.15
2023-04-16T15:17:12.162Z,13.32
2023-04-16T15:19:38.657Z,13.30
2023-04-16T15:22:05.083Z,13.18
2023-04-16T15:24:31.613Z,13.05
2023-04-16T15:26:58.228Z,12.88
2023-04-16T15:29:24.810Z,12.90
2023-04-16T15:31:51.216Z,12.91
2023-04-16T15:34:17.643Z,12.86
2023-04-16T15:36:44.067Z,12.85
2023-04-16T15:39:10.902Z,12.87
2023-04-16T15:41:50.224Z,12.77
2023-04-16T15:44:24.185Z,12.64
2023-04-16T15:46:50.851Z,12.51
2023-04-16T15:49:17.472Z,12.39
2023-04-16T15:51:43.965Z,12.29
2023-04-16T15:54:10.403Z,12.24
2023-04-16T15:56:37.081Z,12.34
2023-04-16T15:59:03.821Z,12.33
2023-04-16T16:01:31.104Z,12.33
2023-04-16T16:04:07.428Z,12.37
2023-04-16T16:06:34.204Z,12.36
2023-04-16T16:09:00.563Z,12.27
2023-04-16T16:11:27.617Z,12.27
2023-04-16T16:13:54.164Z,12.27
2023-04-16T16:16:21.666Z,12.23
2023-04-16T16:18:48.183Z,12.08
2023-04-16T16:21:14.642Z,11.97
2023-04-16T16:23:41.255Z,11.86
2023-04-16T16:26:07.745Z,11.83
2023-04-16T16:28:37.519Z,11.81
2023-04-16T16:31:05.927Z,11.79
2023-04-16T16:33:33.094Z,11.80
2023-04-16T16:35:59.690Z,11.71
2023-04-16T16:38:26.187Z,11.64
2023-04-16T16:40:52.721Z,11.64
2023-04-16T16:43:19.449Z,11.67
2023-04-16T16:45:46.392Z,11.55
2023-04-16T16:48:12.881Z,11.60
2023-04-16T16:50:41.774Z,11.61
2023-04-16T16:53:08.238Z,11.51
2023-04-16T16:55:35.526Z,11.39
2023-04-16T16:58:02.174Z,11.33
2023-04-16T17:00:28.753Z,11.30
2023-04-16T17:02:55.418Z,11.22
2023-04-16T17:05:22.160Z,11.15
2023-04-16T17:07:48.663Z,11.07
2023-04-16T17:10:21.683Z,10.96
2023-04-16T17:12:49.259Z,10.89
2023-04-16T17:15:17.189Z,10.83
2023-04-16T17:17:44.522Z,10.70
2023-04-16T17:20:12.160Z,10.63
2023-04-16T17:22:39.717Z,10.56
2023-04-16T17:25:07.635Z,10.56
2023-04-16T17:27:34.349Z,10.46
2023-04-16T17:30:01.773Z,10.44
2023-04-16T17:32:29.556Z,10.41
2023-04-16T17:34:56.532Z,10.34
2023-04-16T17:37:23.650Z,10.32
2023-04-16T17:39:51.018Z,10.26
2023-04-16T17:42:17.616Z,10.25
2023-04-16T17:44:44.207Z,10.19
2023-04-16T17:47:10.810Z,10.19
2023-04-16T17:49:37.302Z,10.14
2023-04-16T17:52:03.973Z,10.11
2023-04-16T17:54:30.470Z,10.09
2023-04-16T17:56:57.620Z,10.12
2023-04-16T17:59:24.099Z,10.12
2023-04-16T18:01:50.789Z,10.06
2023-04-16T18:04:17.839Z,10.00
2023-04-16T18:06:44.761Z,9.97
2023-04-16T18:09:12.083Z,9.96
2023-04-16T18:11:38.586Z,9.98
2023-04-16T18:14:05.176Z,9.96
2023-04-16T18:16:32.182Z,9.90
2023-04-16T18:18:59.049Z,9.86
2023-04-16T18:21:25.900Z,9.83
2023-04-16T18:23:52.318Z,9.84
2023-04-16T18:26:21.122Z,9.81
2023-04-16T18:28:49.266Z,9.75
2023-04-16T18:31:15.955Z,9.79
2023-04-16T18:33:53.380Z,9.82
2023-04-16T18:36:21.871Z,9.81
2023-04-16T18:39:00.162Z,9.76
2023-04-16T18:41:28.672Z,9.72
2023-04-16T18:43:55.324Z,9.68
2023-04-16T18:46:21.903Z,9.65
2023-04-16T18:48:48.427Z,9.64
2023-04-16T18:51:16.253Z,9.61
2023-04-16T18:53:44.264Z,9.60
2023-04-16T18:56:11.601Z,9.55
2023-04-16T18:58:38.165Z,9.57
2023-04-16T19:01:06.088Z,9.59
2023-04-16T19:03:33.234Z,9.55
2023-04-16T19:06:00.087Z,9.56
2023-04-16T19:08:27.105Z,9.59
2023-04-16T19:10:53.528Z,9.61
2023-04-16T19:13:20.049Z,9.65
2023-04-16T19:15:46.637Z,9.60
2023-04-16T19:18:13.164Z,9.57
2023-04-16T19:20:39.737Z,9.53
2023-04-16T19:23:08.805Z,9.50
2023-04-16T19:25:36.516Z,9.46
2023-04-16T19:28:03.730Z,9.48
2023-04-16T19:30:30.808Z,9.47
2023-04-16T19:32:57.850Z,9.45
2023-04-16T19:35:24.477Z,9.41
2023-04-16T19:37:51.393Z,9.43
2023-04-16T19:40:18.029Z,9.41
2023-04-16T19:42:45.414Z,9.36
2023-04-16T19:45:11.975Z,9.27
2023-04-16T19:47:38.719Z,9.26
2023-04-16T19:50:05.854Z,9.22
2023-04-16T19:52:37.295Z,9.23
2023-04-16T19:55:04.754Z,9.26
2023-04-16T19:57:31.170Z,9.28
2023-04-16T19:59:57.618Z,9.29
2023-04-16T20:02:24.240Z,9.29
2023-04-16T20:04:52.842Z,9.25
2023-04-16T20:07:20.063Z,9.27
2023-04-16T20:09:46.518Z,9.29
2023-04-16T20:12:12.976Z,9.26
2023-04-16T20:14:39.461Z,9.29
2023-04-16T20:17:09.808Z,9.31
2023-04-16T20:19:38.378Z,9.29
2023-04-16T20:22:05.050Z,9.30
2023-04-16T20:24:31.603Z,9.29
2023-04-16T20:26:58.073Z,9.25
2023-04-16T20:29:24.504Z,9.22
2023-04-16T20:31:50.993Z,9.18
2023-04-16T20:34:17.831Z,9.14
2023-04-16T20:36:44.382Z,9.11
2023-04-16T20:39:11.630Z,9.13
2023-04-16T20:41:43.606Z,9.10
2023-04-16T20:44:10.333Z,9.08
2023-04-16T20:46:39.692Z,9.04
2023-04-16T20:49:07.472Z,8.94
2023-04-16T20:51:33.941Z,8.94
2023-04-16T20:54:01.067Z,8.97
2023-04-16T20:56:27.516Z,8.94
2023-04-16T20:58:53.967Z,8.94
2023-04-16T21:01:20.739Z,8.95
2023-04-16T21:03:47.424Z,8.95
2023-04-16T21:06:17.909Z,8.96
2023-04-16T21:08:44.445Z,9.01
2023-04-16T21:11:10.892Z,9.00
2023-04-16T21:13:37.309Z,8.96
2023-04-16T21:16:04.826Z,8.95
2023-04-16T21:18:31.356Z,8.91
2023-04-16T21:20:58.864Z,8.91
2023-04-16T21:23:25.707Z,8.92
2023-04-16T21:25:52.163Z,8.88
2023-04-16T21:28:18.698Z,8.88
2023-04-16T21:30:45.135Z,8.82
2023-04-16T21:33:12.964Z,8.79
2023-04-16T21:35:39.448Z,8.79
2023-04-16T21:38:05.890Z,8.79
2023-04-16T21:40:32.359Z,8.79
2023-04-16T21:42:58.840Z,8.76
2023-04-16T21:45:25.461Z,8.76
2023-04-16T21:47:52.010Z,8.73
2023-04-16T21:50:18.541Z,8.75
2023-04-16T21:52:46.170Z,8.76
2023-04-16T21:55:14.232Z,8.72
2023-04-16T21:57:41.732Z,8.73
2023-04-16T22:00:13.832Z,8.71
2023-04-16T22:02:42.172Z,8.69
2023-04-16T22:05:09.204Z,8.68
2023-04-16T22:07:36.718Z,8.65
2023-04-16T22:10:04.433Z,8.64
2023-04-16T22:12:31.277Z,8.66
2023-04-16T22:15:02.784Z,8.65
2023-04-16T22:17:30.085Z,8.65
2023-04-16T22:19:57.266Z,8.67
2023-04-16T22:22:23.755Z,8.68
2023-04-16T22:24:50.322Z,8.68
2023-04-16T22:27:16.909Z,8.72
2023-04-16T22:29:43.444Z,8.68
2023-04-16T22:32:09.922Z,8.64
2023-04-16T22:34:38.652Z,8.61
2023-04-16T22:37:05.906Z,8.59
2023-04-16T22:39:32.345Z,8.57
2023-04-16T22:41:58.880Z,8.52
2023-04-16T22:44:25.508Z,8.50
2023-04-16T22:46:52.096Z,8.47
2023-04-16T22:49:18.548Z,8.45
2023-04-16T22:51:45.103Z,8.44
2023-04-16T22:54:13.633Z,8.48
2023-04-16T22:56:40.740Z,8.51
2023-04-16T22:59:07.394Z,8.48
2023-04-16T23:01:34.949Z,8.49
2023-04-16T23:04:01.499Z,8.48
2023-04-16T23:06:27.958Z,8.48
2023-04-16T23:08:54.397Z,8.49
2023-04-16T23:11:20.841Z,8.53
2023-04-16T23:13:47.277Z,8.51
2023-04-16T23:16:13.836Z,8.50
2023-04-16T23:18:40.351Z,8.48
2023-04-16T23:21:06.838Z,8.50
2023-04-16T23:23:33.416Z,8.49
2023-04-16T23:26:02.601Z,8.47
2023-04-16T23:28:29.117Z,8.45
2023-04-16T23:30:55.592Z,8.40
2023-04-16T23:33:22.089Z,8.36
2023-04-16T23:35:48.500Z,8.34
2023-04-16T23:38:17.104Z,8.34
2023-04-16T23:40:43.561Z,8.33
2023-04-16T23:43:10.592Z,8.32
2023-04-16T23:45:37.567Z,8.33
2023-04-16T23:48:04.099Z,8.29
2023-04-16T23:50:30.700Z,8.30
2023-04-16T23:52:57.142Z,8.38
2023-04-16T23:55:23.814Z,8.40
2023-04-16T23:57:50.306Z,8.35
